sensor_id;sensor_type;location;lat;lon;timestamp;P1;durP1;ratioP1;P2;durP2;ratioP2
595;SDS011;19946;49.306;11.350;2024-01-06T00:00:43;9.50;;;9.30;;
595;SDS011;19946;49.306;11.350;2024-01-06T00:03:43;7.90;;;7.80;;
595;SDS011;19946;49.306;11.350;2024-01-06T00:06:43;5.57;;;5.57;;
595;SDS011;19946;49.306;11.350;2024-01-06T00:09:44;4.90;;;4.90;;
595;SDS011;19946;49.306;11.350;2024-01-06T00:12:44;6.23;;;6.13;;
595;SDS011;19946;49.306;11.350;2024-01-06T00:15:45;5.30;;;5.30;;
595;SDS011;19946;49.306;11.350;2024-01-06T00:18:45;6.60;;;6.50;;
595;SDS011;19946;49.306;11.350;2024-01-06T00:21:46;7.37;;;7.27;;
595;SDS011;19946;49.306;11.350;2024-01-06T00:24:46;8.20;;;8.10;;
595;SDS011;19946;49.306;11.350;2024-01-06T00:27:48;7.50;;;7.40;;
595;SDS011;19946;49.306;11.350;2024-01-06T00:30:48;8.40;;;8.30;;
595;SDS011;19946;49.306;11.350;2024-01-06T00:33:49;8.30;;;8.20;;
595;SDS011;19946;49.306;11.350;2024-01-06T00:36:49;8.67;;;8.57;;
595;SDS011;19946;49.306;11.350;2024-01-06T00:39:49;9.80;;;9.63;;
595;SDS011;19946;49.306;11.350;2024-01-06T00:42:50;8.80;;;8.70;;
595;SDS011;19946;49.306;11.350;2024-01-06T00:45:50;9.23;;;9.13;;
595;SDS011;19946;49.306;11.350;2024-01-06T00:48:50;8.97;;;8.87;;
595;SDS011;19946;49.306;11.350;2024-01-06T00:51:51;9.40;;;9.20;;
595;SDS011;19946;49.306;11.350;2024-01-06T00:54:51;9.30;;;9.20;;
595;SDS011;19946;49.306;11.350;2024-01-06T00:57:52;8.00;;;7.90;;
595;SDS011;19946;49.306;11.350;2024-01-06T01:00:52;7.07;;;6.97;;
595;SDS011;19946;49.306;11.350;2024-01-06T01:03:52;6.83;;;6.73;;
595;SDS011;19946;49.306;11.350;2024-01-06T01:06:53;5.80;;;5.70;;
595;SDS011;19946;49.306;11.350;2024-01-06T01:09:53;6.60;;;6.50;;
595;SDS011;19946;49.306;11.350;2024-01-06T01:12:53;7.20;;;7.10;;
595;SDS011;19946;49.306;11.350;2024-01-06T01:15:54;8.03;;;7.93;;
595;SDS011;19946;49.306;11.350;2024-01-06T01:18:54;10.03;;;9.83;;
595;SDS011;19946;49.306;11.350;2024-01-06T01:21:54;10.57;;;10.37;;
595;SDS011;19946;49.306;11.350;2024-01-06T01:24:55;8.93;;;8.83;;
595;SDS011;19946;49.306;11.350;2024-01-06T01:27:55;8.80;;;8.70;;
595;SDS011;19946;49.306;11.350;2024-01-06T01:30:56;10.97;;;10.77;;
595;SDS011;19946;49.306;11.350;2024-01-06T01:33:56;8.53;;;8.43;;
595;SDS011;19946;49.306;11.350;2024-01-06T01:36:56;7.10;;;7.00;;
595;SDS011;19946;49.306;11.350;2024-01-06T01:39:57;8.17;;;8.07;;
595;SDS011;19946;49.306;11.350;2024-01-06T01:42:57;6.83;;;6.73;;
595;SDS011;19946;49.306;11.350;2024-01-06T01:45:57;6.03;;;5.93;;
595;SDS011;19946;49.306;11.350;2024-01-06T01:48:59;5.50;;;5.50;;
595;SDS011;19946;49.306;11.350;2024-01-06T01:52:01;5.83;;;5.73;;
595;SDS011;19946;49.306;11.350;2024-01-06T01:55:01;5.90;;;5.80;;
595;SDS011;19946;49.306;11.350;2024-01-06T01:58:02;6.50;;;6.40;;
595;SDS011;19946;49.306;11.350;2024-01-06T02:01:02;7.90;;;7.80;;
595;SDS011;19946;49.306;11.350;2024-01-06T02:04:03;6.70;;;6.60;;
595;SDS011;19946;49.306;11.350;2024-01-06T02:07:04;7.00;;;6.90;;
595;SDS011;19946;49.306;11.350;2024-01-06T02:10:04;7.63;;;7.53;;
595;SDS011;19946;49.306;11.350;2024-01-06T02:13:11;7.10;;;7.00;;
595;SDS011;19946;49.306;11.350;2024-01-06T02:16:12;6.40;;;6.30;;
595;SDS011;19946;49.306;11.350;2024-01-06T02:19:12;7.27;;;7.10;;
595;SDS011;19946;49.306;11.350;2024-01-06T02:22:13;7.80;;;7.70;;
595;SDS011;19946;49.306;11.350;2024-01-06T02:25:14;7.93;;;7.73;;
595;SDS011;19946;49.306;11.350;2024-01-06T02:28:14;6.70;;;6.60;;
595;SDS011;19946;49.306;11.350;2024-01-06T02:31:14;7.20;;;7.10;;
595;SDS011;19946;49.306;11.350;2024-01-06T02:34:15;9.53;;;9.33;;
595;SDS011;19946;49.306;11.350;2024-01-06T02:37:15;9.47;;;9.37;;
595;SDS011;19946;49.306;11.350;2024-01-06T02:40:15;9.20;;;9.00;;
595;SDS011;19946;49.306;11.350;2024-01-06T02:43:16;9.67;;;9.53;;
595;SDS011;19946;49.306;11.350;2024-01-06T02:46:16;8.43;;;8.13;;
595;SDS011;19946;49.306;11.350;2024-01-06T02:49:16;7.10;;;7.00;;
595;SDS011;19946;49.306;11.350;2024-01-06T02:52:17;5.80;;;5.80;;
595;SDS011;19946;49.306;11.350;2024-01-06T02:55:17;6.23;;;6.03;;
595;SDS011;19946;49.306;11.350;2024-01-06T02:58:17;5.70;;;5.70;;
595;SDS011;19946;49.306;11.350;2024-01-06T03:01:18;6.90;;;6.80;;
595;SDS011;19946;49.306;11.350;2024-01-06T03:04:18;7.37;;;7.27;;
595;SDS011;19946;49.306;11.350;2024-01-06T03:07:18;6.10;;;6.00;;
595;SDS011;19946;49.306;11.350;2024-01-06T03:10:19;6.10;;;6.00;;
595;SDS011;19946;49.306;11.350;2024-01-06T03:13:19;6.70;;;6.60;;
595;SDS011;19946;49.306;11.350;2024-01-06T03:16:20;4.50;;;4.50;;
595;SDS011;19946;49.306;11.350;2024-01-06T03:19:20;5.03;;;5.03;;
595;SDS011;19946;49.306;11.350;2024-01-06T03:22:20;6.10;;;6.00;;
595;SDS011;19946;49.306;11.350;2024-01-06T03:25:21;6.33;;;6.23;;
595;SDS011;19946;49.306;11.350;2024-01-06T03:28:21;6.80;;;6.70;;
595;SDS011;19946;49.306;11.350;2024-01-06T03:31:21;7.40;;;7.30;;
595;SDS011;19946;49.306;11.350;2024-01-06T03:34:22;8.07;;;7.97;;
595;SDS011;19946;49.306;11.350;2024-01-06T03:37:22;8.00;;;7.90;;
595;SDS011;19946;49.306;11.350;2024-01-06T03:40:22;8.77;;;8.67;;
595;SDS011;19946;49.306;11.350;2024-01-06T03:43:23;9.40;;;9.30;;
595;SDS011;19946;49.306;11.350;2024-01-06T03:46:23;9.93;;;9.60;;
595;SDS011;19946;49.306;11.350;2024-01-06T03:49:24;10.87;;;10.67;;
595;SDS011;19946;49.306;11.350;2024-01-06T03:52:24;9.90;;;9.70;;
595;SDS011;19946;49.306;11.350;2024-01-06T03:55:24;7.93;;;7.83;;
595;SDS011;19946;49.306;11.350;2024-01-06T03:58:25;6.80;;;6.70;;
595;SDS011;19946;49.306;11.350;2024-01-06T04:01:25;7.90;;;7.80;;
595;SDS011;19946;49.306;11.350;2024-01-06T04:04:26;7.10;;;7.00;;
595;SDS011;19946;49.306;11.350;2024-01-06T04:07:26;8.03;;;7.93;;
595;SDS011;19946;49.306;11.350;2024-01-06T04:10:26;9.00;;;8.90;;
595;SDS011;19946;49.306;11.350;2024-01-06T04:13:26;10.30;;;10.10;;
595;SDS011;19946;49.306;11.350;2024-01-06T04:16:27;9.23;;;9.13;;
595;SDS011;19946;49.306;11.350;2024-01-06T04:19:28;9.50;;;9.40;;
595;SDS011;19946;49.306;11.350;2024-01-06T04:22:28;10.40;;;10.20;;
595;SDS011;19946;49.306;11.350;2024-01-06T04:25:28;9.60;;;9.50;;
595;SDS011;19946;49.306;11.350;2024-01-06T04:28:29;11.00;;;10.80;;
595;SDS011;19946;49.306;11.350;2024-01-06T04:31:29;10.53;;;10.33;;
595;SDS011;19946;49.306;11.350;2024-01-06T04:34:29;8.63;;;8.53;;
595;SDS011;19946;49.306;11.350;2024-01-06T04:37:29;7.53;;;7.43;;
595;SDS011;19946;49.306;11.350;2024-01-06T04:40:30;7.40;;;7.30;;
595;SDS011;19946;49.306;11.350;2024-01-06T04:43:30;7.73;;;7.63;;
595;SDS011;19946;49.306;11.350;2024-01-06T04:46:30;7.40;;;7.30;;
595;SDS011;19946;49.306;11.350;2024-01-06T04:49:31;8.43;;;8.33;;
595;SDS011;19946;49.306;11.350;2024-01-06T04:52:31;8.97;;;8.77;;
595;SDS011;19946;49.306;11.350;2024-01-06T04:55:32;9.67;;;9.47;;
595;SDS011;19946;49.306;11.350;2024-01-06T04:58:32;10.00;;;9.80;;
595;SDS011;19946;49.306;11.350;2024-01-06T05:01:34;9.40;;;9.30;;
595;SDS011;19946;49.306;11.350;2024-01-06T05:04:35;10.90;;;10.70;;
595;SDS011;19946;49.306;11.350;2024-01-06T05:07:35;10.40;;;10.20;;
595;SDS011;19946;49.306;11.350;2024-01-06T05:10:35;11.63;;;11.43;;
595;SDS011;19946;49.306;11.350;2024-01-06T05:13:36;10.20;;;10.00;;
595;SDS011;19946;49.306;11.350;2024-01-06T05:16:37;10.97;;;10.77;;
595;SDS011;19946;49.306;11.350;2024-01-06T05:19:37;11.50;;;11.30;;
595;SDS011;19946;49.306;11.350;2024-01-06T05:22:38;11.83;;;11.63;;
595;SDS011;19946;49.306;11.350;2024-01-06T05:25:38;12.30;;;12.10;;
595;SDS011;19946;49.306;11.350;2024-01-06T05:28:38;11.50;;;11.30;;
595;SDS011;19946;49.306;11.350;2024-01-06T05:31:39;13.17;;;12.87;;
595;SDS011;19946;49.306;11.350;2024-01-06T05:34:39;10.40;;;10.20;;
595;SDS011;19946;49.306;11.350;2024-01-06T05:37:40;8.40;;;8.30;;
595;SDS011;19946;49.306;11.350;2024-01-06T05:40:40;7.30;;;7.20;;
595;SDS011;19946;49.306;11.350;2024-01-06T05:43:41;9.60;;;9.50;;
595;SDS011;19946;49.306;11.350;2024-01-06T05:46:41;6.83;;;6.73;;
595;SDS011;19946;49.306;11.350;2024-01-06T05:49:41;5.87;;;5.77;;
595;SDS011;19946;49.306;11.350;2024-01-06T05:52:43;7.70;;;7.60;;
595;SDS011;19946;49.306;11.350;2024-01-06T05:55:44;7.77;;;7.67;;
595;SDS011;19946;49.306;11.350;2024-01-06T05:58:44;9.40;;;9.30;;
595;SDS011;19946;49.306;11.350;2024-01-06T06:01:44;8.10;;;8.00;;
595;SDS011;19946;49.306;11.350;2024-01-06T06:04:45;7.80;;;7.70;;
595;SDS011;19946;49.306;11.350;2024-01-06T06:07:45;10.53;;;10.33;;
595;SDS011;19946;49.306;11.350;2024-01-06T06:10:45;8.77;;;8.57;;
595;SDS011;19946;49.306;11.350;2024-01-06T06:14:01;7.70;;;7.60;;
595;SDS011;19946;49.306;11.350;2024-01-06T06:17:03;8.80;;;8.70;;
595;SDS011;19946;49.306;11.350;2024-01-06T06:20:03;7.20;;;7.10;;
595;SDS011;19946;49.306;11.350;2024-01-06T06:23:06;5.37;;;5.37;;
595;SDS011;19946;49.306;11.350;2024-01-06T06:26:06;4.50;;;4.50;;
595;SDS011;19946;49.306;11.350;2024-01-06T06:29:08;4.00;;;4.00;;
595;SDS011;19946;49.306;11.350;2024-01-06T06:32:08;4.80;;;4.80;;
595;SDS011;19946;49.306;11.350;2024-01-06T06:35:08;6.73;;;6.47;;
595;SDS011;19946;49.306;11.350;2024-01-06T06:38:09;6.27;;;6.17;;
595;SDS011;19946;49.306;11.350;2024-01-06T06:41:09;7.77;;;7.67;;
595;SDS011;19946;49.306;11.350;2024-01-06T06:44:09;7.70;;;7.60;;
595;SDS011;19946;49.306;11.350;2024-01-06T06:47:10;8.30;;;8.20;;
595;SDS011;19946;49.306;11.350;2024-01-06T06:50:11;10.57;;;10.37;;
595;SDS011;19946;49.306;11.350;2024-01-06T06:53:11;8.90;;;8.80;;
595;SDS011;19946;49.306;11.350;2024-01-06T06:56:12;8.30;;;8.20;;
595;SDS011;19946;49.306;11.350;2024-01-06T06:59:17;7.97;;;7.87;;
595;SDS011;19946;49.306;11.350;2024-01-06T07:02:17;11.80;;;11.60;;
595;SDS011;19946;49.306;11.350;2024-01-06T07:05:17;11.13;;;10.83;;
595;SDS011;19946;49.306;11.350;2024-01-06T07:08:18;8.37;;;8.27;;
595;SDS011;19946;49.306;11.350;2024-01-06T07:11:18;8.20;;;8.10;;
595;SDS011;19946;49.306;11.350;2024-01-06T07:14:19;9.40;;;9.30;;
595;SDS011;19946;49.306;11.350;2024-01-06T07:17:19;9.83;;;9.63;;
595;SDS011;19946;49.306;11.350;2024-01-06T07:20:20;10.23;;;10.03;;
595;SDS011;19946;49.306;11.350;2024-01-06T07:23:20;10.40;;;10.20;;
595;SDS011;19946;49.306;11.350;2024-01-06T07:26:20;11.23;;;11.03;;
595;SDS011;19946;49.306;11.350;2024-01-06T07:29:21;11.43;;;11.23;;
595;SDS011;19946;49.306;11.350;2024-01-06T07:32:22;10.87;;;10.67;;
595;SDS011;19946;49.306;11.350;2024-01-06T07:35:23;12.63;;;12.43;;
595;SDS011;19946;49.306;11.350;2024-01-06T07:38:23;12.67;;;12.47;;
595;SDS011;19946;49.306;11.350;2024-01-06T07:41:23;12.37;;;12.17;;
595;SDS011;19946;49.306;11.350;2024-01-06T07:44:24;14.17;;;13.87;;
595;SDS011;19946;49.306;11.350;2024-01-06T07:47:24;14.27;;;13.97;;
595;SDS011;19946;49.306;11.350;2024-01-06T07:50:25;13.17;;;12.87;;
595;SDS011;19946;49.306;11.350;2024-01-06T07:53:26;15.73;;;15.43;;
595;SDS011;19946;49.306;11.350;2024-01-06T07:56:26;16.80;;;16.40;;
595;SDS011;19946;49.306;11.350;2024-01-06T07:59:27;14.67;;;14.37;;
595;SDS011;19946;49.306;11.350;2024-01-06T08:02:27;15.53;;;15.23;;
595;SDS011;19946;49.306;11.350;2024-01-06T08:05:27;15.83;;;15.53;;
595;SDS011;19946;49.306;11.350;2024-01-06T08:08:27;14.80;;;14.50;;
595;SDS011;19946;49.306;11.350;2024-01-06T08:11:28;11.93;;;11.73;;
595;SDS011;19946;49.306;11.350;2024-01-06T08:14:28;13.10;;;12.80;;
595;SDS011;19946;49.306;11.350;2024-01-06T08:17:28;15.10;;;14.80;;
595;SDS011;19946;49.306;11.350;2024-01-06T08:20:29;17.23;;;16.83;;
595;SDS011;19946;49.306;11.350;2024-01-06T08:23:29;14.70;;;14.40;;
595;SDS011;19946;49.306;11.350;2024-01-06T08:26:29;15.60;;;15.30;;
595;SDS011;19946;49.306;11.350;2024-01-06T08:29:30;17.20;;;16.80;;
595;SDS011;19946;49.306;11.350;2024-01-06T08:32:31;17.53;;;17.13;;
595;SDS011;19946;49.306;11.350;2024-01-06T08:35:32;17.10;;;16.70;;
595;SDS011;19946;49.306;11.350;2024-01-06T08:38:32;11.33;;;11.13;;
595;SDS011;19946;49.306;11.350;2024-01-06T08:41:32;12.10;;;11.90;;
595;SDS011;19946;49.306;11.350;2024-01-06T08:44:33;13.87;;;13.57;;
595;SDS011;19946;49.306;11.350;2024-01-06T08:47:33;13.87;;;13.57;;
595;SDS011;19946;49.306;11.350;2024-01-06T08:50:33;14.57;;;14.20;;
595;SDS011;19946;49.306;11.350;2024-01-06T08:53:34;18.23;;;17.83;;
595;SDS011;19946;49.306;11.350;2024-01-06T08:56:34;11.50;;;11.30;;
595;SDS011;19946;49.306;11.350;2024-01-06T08:59:34;15.13;;;14.83;;
595;SDS011;19946;49.306;11.350;2024-01-06T09:02:35;13.80;;;13.50;;
595;SDS011;19946;49.306;11.350;2024-01-06T09:05:35;15.00;;;14.70;;
595;SDS011;19946;49.306;11.350;2024-01-06T09:08:36;16.90;;;16.50;;
595;SDS011;19946;49.306;11.350;2024-01-06T09:11:36;16.50;;;16.10;;
595;SDS011;19946;49.306;11.350;2024-01-06T09:14:37;17.60;;;17.20;;
595;SDS011;19946;49.306;11.350;2024-01-06T09:17:37;18.47;;;18.07;;
595;SDS011;19946;49.306;11.350;2024-01-06T09:20:37;17.57;;;17.17;;
595;SDS011;19946;49.306;11.350;2024-01-06T09:23:38;12.87;;;12.60;;
595;SDS011;19946;49.306;11.350;2024-01-06T09:26:39;11.50;;;11.30;;
595;SDS011;19946;49.306;11.350;2024-01-06T09:29:39;10.60;;;10.40;;
595;SDS011;19946;49.306;11.350;2024-01-06T09:32:39;8.20;;;8.10;;
595;SDS011;19946;49.306;11.350;2024-01-06T09:35:40;7.80;;;7.70;;
595;SDS011;19946;49.306;11.350;2024-01-06T09:38:40;8.10;;;8.00;;
595;SDS011;19946;49.306;11.350;2024-01-06T09:41:40;12.30;;;12.10;;
595;SDS011;19946;49.306;11.350;2024-01-06T09:44:41;9.97;;;9.77;;
595;SDS011;19946;49.306;11.350;2024-01-06T09:47:42;7.77;;;7.67;;
595;SDS011;19946;49.306;11.350;2024-01-06T09:50:46;6.93;;;6.83;;
595;SDS011;19946;49.306;11.350;2024-01-06T09:56:57;4.40;;;4.40;;
595;SDS011;19946;49.306;11.350;2024-01-06T09:59:58;3.20;;;3.20;;
595;SDS011;19946;49.306;11.350;2024-01-06T10:02:59;3.20;;;3.20;;
595;SDS011;19946;49.306;11.350;2024-01-06T10:05:59;4.37;;;4.37;;
595;SDS011;19946;49.306;11.350;2024-01-06T10:09:03;3.50;;;3.50;;
595;SDS011;19946;49.306;11.350;2024-01-06T10:12:05;2.90;;;2.90;;
595;SDS011;19946;49.306;11.350;2024-01-06T10:15:06;2.90;;;2.90;;
595;SDS011;19946;49.306;11.350;2024-01-06T10:18:08;3.83;;;3.83;;
595;SDS011;19946;49.306;11.350;2024-01-06T10:21:08;3.37;;;3.17;;
595;SDS011;19946;49.306;11.350;2024-01-06T10:24:08;2.87;;;2.87;;
595;SDS011;19946;49.306;11.350;2024-01-06T10:27:09;1.90;;;1.90;;
595;SDS011;19946;49.306;11.350;2024-01-06T10:30:10;1.80;;;1.80;;
595;SDS011;19946;49.306;11.350;2024-01-06T10:33:10;2.53;;;2.43;;
595;SDS011;19946;49.306;11.350;2024-01-06T10:36:11;2.20;;;2.20;;
595;SDS011;19946;49.306;11.350;2024-01-06T10:39:11;2.47;;;2.47;;
595;SDS011;19946;49.306;11.350;2024-01-06T10:42:15;2.33;;;2.33;;
595;SDS011;19946;49.306;11.350;2024-01-06T10:45:16;2.30;;;2.30;;
595;SDS011;19946;49.306;11.350;2024-01-06T10:48:17;2.57;;;2.57;;
595;SDS011;19946;49.306;11.350;2024-01-06T10:51:18;2.83;;;2.83;;
595;SDS011;19946;49.306;11.350;2024-01-06T10:54:19;3.20;;;3.20;;
595;SDS011;19946;49.306;11.350;2024-01-06T10:57:21;3.00;;;3.00;;
595;SDS011;19946;49.306;11.350;2024-01-06T11:00:23;2.50;;;2.50;;
595;SDS011;19946;49.306;11.350;2024-01-06T11:03:24;3.10;;;3.10;;
595;SDS011;19946;49.306;11.350;2024-01-06T11:06:25;2.40;;;2.40;;
595;SDS011;19946;49.306;11.350;2024-01-06T11:09:27;2.50;;;2.50;;
595;SDS011;19946;49.306;11.350;2024-01-06T11:12:33;2.80;;;2.80;;
595;SDS011;19946;49.306;11.350;2024-01-06T11:15:44;2.90;;;2.90;;
595;SDS011;19946;49.306;11.350;2024-01-06T11:18:53;2.20;;;2.20;;
595;SDS011;19946;49.306;11.350;2024-01-06T11:21:53;2.67;;;2.67;;
595;SDS011;19946;49.306;11.350;2024-01-06T11:24:54;2.93;;;2.93;;
595;SDS011;19946;49.306;11.350;2024-01-06T11:27:56;2.60;;;2.60;;
595;SDS011;19946;49.306;11.350;2024-01-06T11:31:04;3.00;;;3.00;;
595;SDS011;19946;49.306;11.350;2024-01-06T11:34:17;2.40;;;2.40;;
595;SDS011;19946;49.306;11.350;2024-01-06T11:37:20;2.70;;;2.70;;
595;SDS011;19946;49.306;11.350;2024-01-06T11:40:25;2.90;;;2.83;;
595;SDS011;19946;49.306;11.350;2024-01-06T11:43:33;2.93;;;2.93;;
595;SDS011;19946;49.306;11.350;2024-01-06T11:46:35;2.47;;;2.47;;
595;SDS011;19946;49.306;11.350;2024-01-06T11:49:36;2.80;;;2.80;;
595;SDS011;19946;49.306;11.350;2024-01-06T11:52:37;2.80;;;2.80;;
595;SDS011;19946;49.306;11.350;2024-01-06T11:55:40;2.10;;;2.10;;
595;SDS011;19946;49.306;11.350;2024-01-06T11:58:42;2.20;;;2.20;;
595;SDS011;19946;49.306;11.350;2024-01-06T12:01:42;1.90;;;1.90;;
595;SDS011;19946;49.306;11.350;2024-01-06T12:04:43;2.00;;;2.00;;
595;SDS011;19946;49.306;11.350;2024-01-06T12:07:54;2.00;;;2.00;;
595;SDS011;19946;49.306;11.350;2024-01-06T12:11:02;2.80;;;2.70;;
595;SDS011;19946;49.306;11.350;2024-01-06T12:14:03;2.50;;;2.50;;
595;SDS011;19946;49.306;11.350;2024-01-06T12:17:04;2.27;;;2.27;;
595;SDS011;19946;49.306;11.350;2024-01-06T12:20:04;2.13;;;2.13;;
595;SDS011;19946;49.306;11.350;2024-01-06T12:23:05;2.23;;;2.23;;
595;SDS011;19946;49.306;11.350;2024-01-06T12:26:05;2.53;;;2.53;;
595;SDS011;19946;49.306;11.350;2024-01-06T12:29:06;2.40;;;2.40;;
595;SDS011;19946;49.306;11.350;2024-01-06T12:32:06;4.27;;;3.83;;
595;SDS011;19946;49.306;11.350;2024-01-06T12:35:08;3.20;;;3.10;;
595;SDS011;19946;49.306;11.350;2024-01-06T12:38:09;3.00;;;2.90;;
595;SDS011;19946;49.306;11.350;2024-01-06T12:41:10;3.00;;;2.83;;
595;SDS011;19946;49.306;11.350;2024-01-06T12:44:10;2.30;;;2.30;;
595;SDS011;19946;49.306;11.350;2024-01-06T12:47:11;2.60;;;2.60;;
595;SDS011;19946;49.306;11.350;2024-01-06T12:50:12;2.93;;;2.50;;
595;SDS011;19946;49.306;11.350;2024-01-06T12:53:12;2.30;;;2.30;;
595;SDS011;19946;49.306;11.350;2024-01-06T12:56:15;2.20;;;2.20;;
595;SDS011;19946;49.306;11.350;2024-01-06T12:59:15;2.33;;;2.23;;
595;SDS011;19946;49.306;11.350;2024-01-06T13:02:16;1.97;;;1.97;;
595;SDS011;19946;49.306;11.350;2024-01-06T13:05:16;2.57;;;2.47;;
595;SDS011;19946;49.306;11.350;2024-01-06T13:08:16;2.03;;;1.93;;
595;SDS011;19946;49.306;11.350;2024-01-06T13:11:17;2.33;;;2.20;;
595;SDS011;19946;49.306;11.350;2024-01-06T13:14:19;2.47;;;2.47;;
595;SDS011;19946;49.306;11.350;2024-01-06T13:17:19;2.00;;;2.00;;
595;SDS011;19946;49.306;11.350;2024-01-06T13:20:20;2.20;;;2.20;;
595;SDS011;19946;49.306;11.350;2024-01-06T13:23:20;2.37;;;2.27;;
595;SDS011;19946;49.306;11.350;2024-01-06T13:26:21;2.53;;;2.53;;
595;SDS011;19946;49.306;11.350;2024-01-06T13:29:21;2.53;;;2.53;;
595;SDS011;19946;49.306;11.350;2024-01-06T13:32:21;2.53;;;2.43;;
595;SDS011;19946;49.306;11.350;2024-01-06T13:35:22;2.97;;;2.87;;
595;SDS011;19946;49.306;11.350;2024-01-06T13:38:26;2.63;;;2.60;;
595;SDS011;19946;49.306;11.350;2024-01-06T13:41:26;2.70;;;2.63;;
595;SDS011;19946;49.306;11.350;2024-01-06T13:44:27;2.97;;;2.87;;
595;SDS011;19946;49.306;11.350;2024-01-06T13:47:27;2.87;;;2.87;;
595;SDS011;19946;49.306;11.350;2024-01-06T13:50:27;3.23;;;3.13;;
595;SDS011;19946;49.306;11.350;2024-01-06T13:53:27;3.00;;;2.90;;
595;SDS011;19946;49.306;11.350;2024-01-06T13:56:28;2.83;;;2.73;;
595;SDS011;19946;49.306;11.350;2024-01-06T13:59:28;3.63;;;3.50;;
595;SDS011;19946;49.306;11.350;2024-01-06T14:02:29;3.30;;;3.20;;
595;SDS011;19946;49.306;11.350;2024-01-06T14:05:29;2.93;;;2.93;;
595;SDS011;19946;49.306;11.350;2024-01-06T14:08:30;3.20;;;3.20;;
595;SDS011;19946;49.306;11.350;2024-01-06T14:11:30;4.40;;;4.20;;
595;SDS011;19946;49.306;11.350;2024-01-06T14:14:31;4.07;;;3.97;;
595;SDS011;19946;49.306;11.350;2024-01-06T14:17:32;3.50;;;3.40;;
595;SDS011;19946;49.306;11.350;2024-01-06T14:20:32;3.50;;;3.37;;
595;SDS011;19946;49.306;11.350;2024-01-06T14:23:37;3.20;;;3.10;;
595;SDS011;19946;49.306;11.350;2024-01-06T14:26:38;4.30;;;3.90;;
595;SDS011;19946;49.306;11.350;2024-01-06T14:29:40;2.73;;;2.73;;
595;SDS011;19946;49.306;11.350;2024-01-06T14:32:40;3.23;;;3.10;;
595;SDS011;19946;49.306;11.350;2024-01-06T14:35:41;3.93;;;3.63;;
595;SDS011;19946;49.306;11.350;2024-01-06T14:38:42;3.20;;;3.10;;
595;SDS011;19946;49.306;11.350;2024-01-06T14:41:42;3.23;;;3.13;;
595;SDS011;19946;49.306;11.350;2024-01-06T14:44:43;3.00;;;2.80;;
595;SDS011;19946;49.306;11.350;2024-01-06T14:47:43;2.80;;;2.70;;
595;SDS011;19946;49.306;11.350;2024-01-06T14:50:43;3.23;;;3.10;;
595;SDS011;19946;49.306;11.350;2024-01-06T14:53:44;2.73;;;2.63;;
595;SDS011;19946;49.306;11.350;2024-01-06T14:56:44;2.40;;;2.40;;
595;SDS011;19946;49.306;11.350;2024-01-06T14:59:46;2.70;;;2.70;;
595;SDS011;19946;49.306;11.350;2024-01-06T15:02:46;2.07;;;2.07;;
595;SDS011;19946;49.306;11.350;2024-01-06T15:05:47;2.03;;;2.00;;
595;SDS011;19946;49.306;11.350;2024-01-06T15:08:47;2.10;;;2.10;;
595;SDS011;19946;49.306;11.350;2024-01-06T15:11:48;2.67;;;2.67;;
595;SDS011;19946;49.306;11.350;2024-01-06T15:14:49;2.20;;;2.20;;
595;SDS011;19946;49.306;11.350;2024-01-06T15:17:49;2.40;;;2.40;;
595;SDS011;19946;49.306;11.350;2024-01-06T15:20:49;2.50;;;2.50;;
595;SDS011;19946;49.306;11.350;2024-01-06T15:23:50;2.70;;;2.60;;
595;SDS011;19946;49.306;11.350;2024-01-06T15:26:50;3.17;;;3.07;;
595;SDS011;19946;49.306;11.350;2024-01-06T15:29:52;3.87;;;3.87;;
595;SDS011;19946;49.306;11.350;2024-01-06T15:32:52;4.17;;;3.97;;
595;SDS011;19946;49.306;11.350;2024-01-06T15:35:53;3.63;;;3.63;;
595;SDS011;19946;49.306;11.350;2024-01-06T15:38:53;4.13;;;4.13;;
595;SDS011;19946;49.306;11.350;2024-01-06T15:41:54;4.60;;;4.50;;
595;SDS011;19946;49.306;11.350;2024-01-06T15:44:54;3.87;;;3.80;;
595;SDS011;19946;49.306;11.350;2024-01-06T15:47:55;3.77;;;3.77;;
595;SDS011;19946;49.306;11.350;2024-01-06T15:50:55;3.90;;;3.80;;
595;SDS011;19946;49.306;11.350;2024-01-06T15:53:55;3.53;;;3.43;;
595;SDS011;19946;49.306;11.350;2024-01-06T15:56:56;3.40;;;3.30;;
595;SDS011;19946;49.306;11.350;2024-01-06T15:59:56;3.80;;;3.67;;
595;SDS011;19946;49.306;11.350;2024-01-06T16:02:57;3.50;;;3.40;;
595;SDS011;19946;49.306;11.350;2024-01-06T16:05:59;4.13;;;3.87;;
595;SDS011;19946;49.306;11.350;2024-01-06T16:09:00;3.00;;;3.00;;
595;SDS011;19946;49.306;11.350;2024-01-06T16:12:00;3.67;;;3.57;;
595;SDS011;19946;49.306;11.350;2024-01-06T16:15:01;4.20;;;4.10;;
595;SDS011;19946;49.306;11.350;2024-01-06T16:18:01;5.03;;;4.93;;
595;SDS011;19946;49.306;11.350;2024-01-06T16:21:01;5.03;;;4.93;;
595;SDS011;19946;49.306;11.350;2024-01-06T16:24:02;5.17;;;5.07;;
595;SDS011;19946;49.306;11.350;2024-01-06T16:27:02;4.77;;;4.67;;
595;SDS011;19946;49.306;11.350;2024-01-06T16:30:03;3.90;;;3.83;;
595;SDS011;19946;49.306;11.350;2024-01-06T16:33:04;4.20;;;4.10;;
595;SDS011;19946;49.306;11.350;2024-01-06T16:36:05;4.00;;;3.90;;
595;SDS011;19946;49.306;11.350;2024-01-06T16:39:08;3.63;;;3.53;;
595;SDS011;19946;49.306;11.350;2024-01-06T16:42:09;3.10;;;3.10;;
595;SDS011;19946;49.306;11.350;2024-01-06T16:45:09;6.83;;;4.20;;
595;SDS011;19946;49.306;11.350;2024-01-06T16:48:10;2.90;;;2.90;;
595;SDS011;19946;49.306;11.350;2024-01-06T16:51:10;2.93;;;2.93;;
595;SDS011;19946;49.306;11.350;2024-01-06T16:54:11;3.00;;;3.00;;
595;SDS011;19946;49.306;11.350;2024-01-06T16:57:11;2.90;;;2.90;;
595;SDS011;19946;49.306;11.350;2024-01-06T17:00:11;3.20;;;3.10;;
595;SDS011;19946;49.306;11.350;2024-01-06T17:03:12;2.77;;;2.77;;
595;SDS011;19946;49.306;11.350;2024-01-06T17:06:12;2.90;;;2.90;;
595;SDS011;19946;49.306;11.350;2024-01-06T17:09:13;3.20;;;3.10;;
595;SDS011;19946;49.306;11.350;2024-01-06T17:12:13;3.53;;;3.43;;
595;SDS011;19946;49.306;11.350;2024-01-06T17:15:14;3.23;;;3.10;;
595;SDS011;19946;49.306;11.350;2024-01-06T17:18:15;2.80;;;2.70;;
595;SDS011;19946;49.306;11.350;2024-01-06T17:21:15;2.57;;;2.57;;
595;SDS011;19946;49.306;11.350;2024-01-06T17:24:17;2.77;;;2.63;;
595;SDS011;19946;49.306;11.350;2024-01-06T17:27:17;2.63;;;2.63;;
595;SDS011;19946;49.306;11.350;2024-01-06T17:30:18;3.00;;;2.90;;
595;SDS011;19946;49.306;11.350;2024-01-06T17:33:18;3.13;;;2.93;;
595;SDS011;19946;49.306;11.350;2024-01-06T17:36:19;2.77;;;2.67;;
595;SDS011;19946;49.306;11.350;2024-01-06T17:39:19;2.17;;;2.17;;
595;SDS011;19946;49.306;11.350;2024-01-06T17:42:19;1.83;;;1.83;;
595;SDS011;19946;49.306;11.350;2024-01-06T17:45:22;2.23;;;2.13;;
595;SDS011;19946;49.306;11.350;2024-01-06T17:48:23;2.03;;;2.03;;
595;SDS011;19946;49.306;11.350;2024-01-06T17:51:24;1.80;;;1.80;;
595;SDS011;19946;49.306;11.350;2024-01-06T17:54:26;1.50;;;1.50;;
595;SDS011;19946;49.306;11.350;2024-01-06T17:57:27;1.40;;;1.40;;
595;SDS011;19946;49.306;11.350;2024-01-06T18:00:28;1.77;;;1.70;;
595;SDS011;19946;49.306;11.350;2024-01-06T18:03:30;1.47;;;1.47;;
595;SDS011;19946;49.306;11.350;2024-01-06T18:06:31;1.60;;;1.60;;
595;SDS011;19946;49.306;11.350;2024-01-06T18:09:31;2.10;;;2.10;;
595;SDS011;19946;49.306;11.350;2024-01-06T18:12:31;1.77;;;1.77;;
595;SDS011;19946;49.306;11.350;2024-01-06T18:15:32;2.57;;;2.57;;
595;SDS011;19946;49.306;11.350;2024-01-06T18:18:32;2.07;;;2.07;;
595;SDS011;19946;49.306;11.350;2024-01-06T18:21:33;2.70;;;2.60;;